sensor_id;sensor_type;location;lat;lon;timestamp;P1;durP1;ratioP1;P2;durP2;ratioP2
8694;SDS011;65580;49.446;6.854;2023-12-28T00:03:36;44.35;;;20.38;;
8694;SDS011;65580;49.446;6.854;2023-12-28T00:07:41;46.72;;;20.27;;
8694;SDS011;65580;49.446;6.854;2023-12-28T00:11:44;36.33;;;17.85;;
8694;SDS011;65580;49.446;6.854;2023-12-28T00:15:46;35.65;;;16.70;;
8694;SDS011;65580;49.446;6.854;2023-12-28T00:19:49;40.53;;;18.70;;
8694;SDS011;65580;49.446;6.854;2023-12-28T00:23:54;48.88;;;21.05;;
8694;SDS011;65580;49.446;6.854;2023-12-28T00:27:57;46.20;;;20.75;;
8694;SDS011;65580;49.446;6.854;2023-12-28T00:32:00;39.08;;;18.30;;
8694;SDS011;65580;49.446;6.854;2023-12-28T00:36:04;42.20;;;18.67;;
8694;SDS011;65580;49.446;6.854;2023-12-28T00:40:09;38.80;;;19.48;;
8694;SDS011;65580;49.446;6.854;2023-12-28T00:44:12;40.97;;;19.55;;
8694;SDS011;65580;49.446;6.854;2023-12-28T00:48:15;45.33;;;19.10;;
8694;SDS011;65580;49.446;6.854;2023-12-28T00:52:19;36.42;;;17.75;;
8694;SDS011;65580;49.446;6.854;2023-12-28T00:56:23;35.35;;;17.80;;
8694;SDS011;65580;49.446;6.854;2023-12-28T01:00:26;36.67;;;17.52;;
8694;SDS011;65580;49.446;6.854;2023-12-28T01:04:32;44.05;;;20.30;;
8694;SDS011;65580;49.446;6.854;2023-12-28T01:08:35;31.60;;;15.55;;
8694;SDS011;65580;49.446;6.854;2023-12-28T01:12:39;34.38;;;16.10;;
8694;SDS011;65580;49.446;6.854;2023-12-28T01:16:42;37.67;;;18.05;;
8694;SDS011;65580;49.446;6.854;2023-12-28T01:20:45;19.45;;;10.32;;
8694;SDS011;65580;49.446;6.854;2023-12-28T01:24:48;26.58;;;10.20;;
8694;SDS011;65580;49.446;6.854;2023-12-28T01:28:52;17.55;;;7.65;;
8694;SDS011;65580;49.446;6.854;2023-12-28T01:32:55;16.25;;;6.75;;
8694;SDS011;65580;49.446;6.854;2023-12-28T01:36:58;17.58;;;8.82;;
8694;SDS011;65580;49.446;6.854;2023-12-28T01:41:01;18.30;;;8.40;;
8694;SDS011;65580;49.446;6.854;2023-12-28T01:45:06;20.38;;;9.05;;
8694;SDS011;65580;49.446;6.854;2023-12-28T01:49:09;23.30;;;9.70;;
8694;SDS011;65580;49.446;6.854;2023-12-28T01:53:12;36.97;;;12.85;;
8694;SDS011;65580;49.446;6.854;2023-12-28T01:57:15;20.67;;;8.93;;
8694;SDS011;65580;49.446;6.854;2023-12-28T02:01:20;16.58;;;8.82;;
8694;SDS011;65580;49.446;6.854;2023-12-28T02:05:23;23.63;;;9.52;;
8694;SDS011;65580;49.446;6.854;2023-12-28T02:09:26;17.13;;;9.18;;
8694;SDS011;65580;49.446;6.854;2023-12-28T02:13:29;14.95;;;7.50;;
8694;SDS011;65580;49.446;6.854;2023-12-28T02:17:35;29.27;;;11.93;;
8694;SDS011;65580;49.446;6.854;2023-12-28T02:21:40;18.63;;;8.73;;
8694;SDS011;65580;49.446;6.854;2023-12-28T02:25:45;24.77;;;9.88;;
8694;SDS011;65580;49.446;6.854;2023-12-28T02:33:50;21.88;;;8.68;;
8694;SDS011;65580;49.446;6.854;2023-12-28T02:37:59;21.55;;;9.57;;
8694;SDS011;65580;49.446;6.854;2023-12-28T02:42:06;16.48;;;7.95;;
8694;SDS011;65580;49.446;6.854;2023-12-28T02:50:11;25.90;;;10.40;;
8694;SDS011;65580;49.446;6.854;2023-12-28T02:54:14;16.65;;;8.57;;
8694;SDS011;65580;49.446;6.854;2023-12-28T02:58:19;18.35;;;8.07;;
8694;SDS011;65580;49.446;6.854;2023-12-28T03:02:22;20.05;;;8.15;;
8694;SDS011;65580;49.446;6.854;2023-12-28T03:06:25;24.58;;;9.63;;
8694;SDS011;65580;49.446;6.854;2023-12-28T03:10:28;34.60;;;13.13;;
8694;SDS011;65580;49.446;6.854;2023-12-28T03:14:32;21.77;;;10.05;;
8694;SDS011;65580;49.446;6.854;2023-12-28T03:18:35;26.27;;;10.27;;
8694;SDS011;65580;49.446;6.854;2023-12-28T03:22:38;23.13;;;10.45;;
8694;SDS011;65580;49.446;6.854;2023-12-28T03:26:42;20.15;;;9.02;;
8694;SDS011;65580;49.446;6.854;2023-12-28T03:30:46;24.23;;;9.15;;
8694;SDS011;65580;49.446;6.854;2023-12-28T03:34:49;17.90;;;8.07;;
8694;SDS011;65580;49.446;6.854;2023-12-28T03:38:52;14.15;;;6.95;;
8694;SDS011;65580;49.446;6.854;2023-12-28T03:42:55;12.43;;;6.05;;
8694;SDS011;65580;49.446;6.854;2023-12-28T03:46:59;17.50;;;7.07;;
8694;SDS011;65580;49.446;6.854;2023-12-28T03:51:02;17.65;;;7.32;;
8694;SDS011;65580;49.446;6.854;2023-12-28T03:55:05;16.80;;;6.20;;
8694;SDS011;65580;49.446;6.854;2023-12-28T03:59:08;14.85;;;6.15;;
8694;SDS011;65580;49.446;6.854;2023-12-28T04:03:13;14.80;;;6.93;;
8694;SDS011;65580;49.446;6.854;2023-12-28T04:07:15;17.25;;;6.70;;
8694;SDS011;65580;49.446;6.854;2023-12-28T04:11:18;15.40;;;7.25;;
8694;SDS011;65580;49.446;6.854;2023-12-28T04:15:21;16.00;;;7.95;;
8694;SDS011;65580;49.446;6.854;2023-12-28T04:19:25;14.30;;;7.20;;
8694;SDS011;65580;49.446;6.854;2023-12-28T04:23:28;19.67;;;8.95;;
8694;SDS011;65580;49.446;6.854;2023-12-28T04:27:31;26.85;;;11.00;;
8694;SDS011;65580;49.446;6.854;2023-12-28T04:31:39;21.00;;;9.15;;
8694;SDS011;65580;49.446;6.854;2023-12-28T04:35:44;25.02;;;11.05;;
8694;SDS011;65580;49.446;6.854;2023-12-28T04:39:47;19.85;;;9.50;;
8694;SDS011;65580;49.446;6.854;2023-12-28T04:43:50;19.50;;;9.73;;
8694;SDS011;65580;49.446;6.854;2023-12-28T04:47:53;16.70;;;7.40;;
8694;SDS011;65580;49.446;6.854;2023-12-28T04:51:58;11.85;;;6.03;;
8694;SDS011;65580;49.446;6.854;2023-12-28T04:56:01;13.32;;;6.28;;
8694;SDS011;65580;49.446;6.854;2023-12-28T05:00:04;13.50;;;6.55;;
8694;SDS011;65580;49.446;6.854;2023-12-28T05:04:09;9.30;;;4.90;;
8694;SDS011;65580;49.446;6.854;2023-12-28T05:08:19;11.52;;;6.07;;
8694;SDS011;65580;49.446;6.854;2023-12-28T05:12:22;8.90;;;4.80;;
8694;SDS011;65580;49.446;6.854;2023-12-28T05:16:28;10.45;;;5.40;;
8694;SDS011;65580;49.446;6.854;2023-12-28T05:20:31;15.65;;;5.80;;
8694;SDS011;65580;49.446;6.854;2023-12-28T05:24:35;11.82;;;5.10;;
8694;SDS011;65580;49.446;6.854;2023-12-28T05:28:38;13.13;;;5.13;;
8694;SDS011;65580;49.446;6.854;2023-12-28T05:32:41;13.30;;;5.18;;
8694;SDS011;65580;49.446;6.854;2023-12-28T05:36:44;11.35;;;5.38;;
8694;SDS011;65580;49.446;6.854;2023-12-28T05:40:48;11.70;;;5.50;;
8694;SDS011;65580;49.446;6.854;2023-12-28T05:44:51;12.80;;;4.80;;
8694;SDS011;65580;49.446;6.854;2023-12-28T05:48:53;11.27;;;4.80;;
8694;SDS011;65580;49.446;6.854;2023-12-28T05:52:56;8.00;;;4.22;;
8694;SDS011;65580;49.446;6.854;2023-12-28T05:57:01;11.50;;;4.43;;
8694;SDS011;65580;49.446;6.854;2023-12-28T06:01:04;11.35;;;4.65;;
8694;SDS011;65580;49.446;6.854;2023-12-28T06:05:07;53.90;;;24.00;;
8694;SDS011;65580;49.446;6.854;2023-12-28T06:09:10;16.92;;;7.18;;
8694;SDS011;65580;49.446;6.854;2023-12-28T06:13:14;9.70;;;4.55;;
8694;SDS011;65580;49.446;6.854;2023-12-28T06:17:17;9.65;;;5.18;;
8694;SDS011;65580;49.446;6.854;2023-12-28T06:21:20;14.13;;;5.75;;
8694;SDS011;65580;49.446;6.854;2023-12-28T06:25:23;18.45;;;6.88;;
8694;SDS011;65580;49.446;6.854;2023-12-28T06:29:27;15.13;;;6.18;;
8694;SDS011;65580;49.446;6.854;2023-12-28T06:33:30;8.85;;;4.65;;
8694;SDS011;65580;49.446;6.854;2023-12-28T06:37:33;8.20;;;4.70;;
8694;SDS011;65580;49.446;6.854;2023-12-28T06:41:36;12.73;;;4.82;;
8694;SDS011;65580;49.446;6.854;2023-12-28T06:45:40;13.40;;;4.85;;
8694;SDS011;65580;49.446;6.854;2023-12-28T06:49:43;11.45;;;5.15;;
8694;SDS011;65580;49.446;6.854;2023-12-28T06:53:46;14.48;;;5.13;;
8694;SDS011;65580;49.446;6.854;2023-12-28T06:57:50;13.27;;;5.38;;
8694;SDS011;65580;49.446;6.854;2023-12-28T07:01:54;12.10;;;4.70;;
8694;SDS011;65580;49.446;6.854;2023-12-28T07:05:57;16.73;;;5.30;;
8694;SDS011;65580;49.446;6.854;2023-12-28T07:10:00;8.77;;;4.50;;
8694;SDS011;65580;49.446;6.854;2023-12-28T07:14:02;14.77;;;5.25;;
8694;SDS011;65580;49.446;6.854;2023-12-28T07:18:07;10.73;;;4.95;;
8694;SDS011;65580;49.446;6.854;2023-12-28T07:22:10;11.38;;;4.68;;
8694;SDS011;65580;49.446;6.854;2023-12-28T07:26:13;14.85;;;5.47;;
8694;SDS011;65580;49.446;6.854;2023-12-28T07:30:15;12.52;;;4.78;;
8694;SDS011;65580;49.446;6.854;2023-12-28T07:34:20;11.98;;;4.57;;
8694;SDS011;65580;49.446;6.854;2023-12-28T07:38:23;9.82;;;4.07;;
8694;SDS011;65580;49.446;6.854;2023-12-28T07:42:26;13.10;;;4.60;;
8694;SDS011;65580;49.446;6.854;2023-12-28T07:46:29;9.38;;;4.45;;
8694;SDS011;65580;49.446;6.854;2023-12-28T07:50:33;12.82;;;4.10;;
8694;SDS011;65580;49.446;6.854;2023-12-28T07:54:36;10.30;;;4.28;;
8694;SDS011;65580;49.446;6.854;2023-12-28T07:58:39;11.43;;;4.53;;
8694;SDS011;65580;49.446;6.854;2023-12-28T08:02:41;13.20;;;4.38;;
8694;SDS011;65580;49.446;6.854;2023-12-28T08:06:45;13.27;;;4.10;;
8694;SDS011;65580;49.446;6.854;2023-12-28T08:10:48;10.88;;;3.95;;
8694;SDS011;65580;49.446;6.854;2023-12-28T08:14:51;9.00;;;3.38;;
8694;SDS011;65580;49.446;6.854;2023-12-28T08:18:54;7.47;;;3.60;;
8694;SDS011;65580;49.446;6.854;2023-12-28T08:22:58;9.70;;;2.95;;
8694;SDS011;65580;49.446;6.854;2023-12-28T08:27:17;9.65;;;4.03;;
8694;SDS011;65580;49.446;6.854;2023-12-28T08:31:20;10.48;;;4.32;;
8694;SDS011;65580;49.446;6.854;2023-12-28T08:35:23;8.07;;;3.90;;
8694;SDS011;65580;49.446;6.854;2023-12-28T08:39:27;9.00;;;3.40;;
8694;SDS011;65580;49.446;6.854;2023-12-28T08:43:30;8.35;;;4.07;;
8694;SDS011;65580;49.446;6.854;2023-12-28T08:47:33;13.07;;;4.32;;
8694;SDS011;65580;49.446;6.854;2023-12-28T08:51:36;10.77;;;3.95;;
8694;SDS011;65580;49.446;6.854;2023-12-28T08:55:44;9.02;;;3.88;;
8694;SDS011;65580;49.446;6.854;2023-12-28T08:59:47;9.95;;;3.42;;
8694;SDS011;65580;49.446;6.854;2023-12-28T09:03:50;10.90;;;4.22;;
8694;SDS011;65580;49.446;6.854;2023-12-28T09:07:53;9.93;;;3.17;;
8694;SDS011;65580;49.446;6.854;2023-12-28T09:11:58;7.90;;;3.40;;
8694;SDS011;65580;49.446;6.854;2023-12-28T09:16:00;5.63;;;3.22;;
8694;SDS011;65580;49.446;6.854;2023-12-28T09:20:08;5.22;;;2.85;;
8694;SDS011;65580;49.446;6.854;2023-12-28T09:24:13;7.40;;;2.75;;
8694;SDS011;65580;49.446;6.854;2023-12-28T09:28:18;5.85;;;2.60;;
8694;SDS011;65580;49.446;6.854;2023-12-28T09:32:21;6.85;;;3.15;;
8694;SDS011;65580;49.446;6.854;2023-12-28T09:36:24;12.93;;;3.08;;
8694;SDS011;65580;49.446;6.854;2023-12-28T09:40:27;7.18;;;2.30;;
8694;SDS011;65580;49.446;6.854;2023-12-28T09:44:32;9.18;;;2.30;;
8694;SDS011;65580;49.446;6.854;2023-12-28T09:48:37;4.93;;;2.35;;
8694;SDS011;65580;49.446;6.854;2023-12-28T09:52:41;7.72;;;2.30;;
8694;SDS011;65580;49.446;6.854;2023-12-28T09:56:46;5.85;;;2.25;;
8694;SDS011;65580;49.446;6.854;2023-12-28T10:00:50;8.10;;;2.35;;
8694;SDS011;65580;49.446;6.854;2023-12-28T10:04:53;6.55;;;2.20;;
8694;SDS011;65580;49.446;6.854;2023-12-28T10:08:56;7.82;;;2.85;;
8694;SDS011;65580;49.446;6.854;2023-12-28T10:13:00;6.93;;;2.38;;
8694;SDS011;65580;49.446;6.854;2023-12-28T10:17:05;13.20;;;2.70;;
8694;SDS011;65580;49.446;6.854;2023-12-28T10:21:08;11.88;;;2.40;;
8694;SDS011;65580;49.446;6.854;2023-12-28T10:25:11;7.63;;;2.60;;
8694;SDS011;65580;49.446;6.854;2023-12-28T10:29:14;7.32;;;2.63;;
8694;SDS011;65580;49.446;6.854;2023-12-28T10:33:19;7.53;;;2.95;;
8694;SDS011;65580;49.446;6.854;2023-12-28T10:37:22;9.05;;;2.60;;
8694;SDS011;65580;49.446;6.854;2023-12-28T10:41:28;10.88;;;3.05;;
8694;SDS011;65580;49.446;6.854;2023-12-28T10:45:33;4.65;;;2.72;;
8694;SDS011;65580;49.446;6.854;2023-12-28T10:49:38;6.80;;;2.63;;
8694;SDS011;65580;49.446;6.854;2023-12-28T10:53:44;5.30;;;2.92;;
8694;SDS011;65580;49.446;6.854;2023-12-28T10:57:52;8.50;;;2.90;;
8694;SDS011;65580;49.446;6.854;2023-12-28T11:02:01;4.25;;;2.70;;
8694;SDS011;65580;49.446;6.854;2023-12-28T11:06:09;8.30;;;3.80;;
8694;SDS011;65580;49.446;6.854;2023-12-28T11:10:14;19.98;;;7.80;;
8694;SDS011;65580;49.446;6.854;2023-12-28T11:14:17;8.48;;;3.17;;
8694;SDS011;65580;49.446;6.854;2023-12-28T11:18:20;4.28;;;2.30;;
8694;SDS011;65580;49.446;6.854;2023-12-28T11:22:27;5.95;;;2.55;;
8694;SDS011;65580;49.446;6.854;2023-12-28T11:26:30;9.50;;;2.83;;
8694;SDS011;65580;49.446;6.854;2023-12-28T11:30:32;6.28;;;1.77;;
8694;SDS011;65580;49.446;6.854;2023-12-28T11:34:36;4.32;;;1.73;;
8694;SDS011;65580;49.446;6.854;2023-12-28T11:38:41;6.60;;;3.10;;
8694;SDS011;65580;49.446;6.854;2023-12-28T11:42:49;3.15;;;1.80;;
8694;SDS011;65580;49.446;6.854;2023-12-28T11:46:52;5.65;;;2.80;;
8694;SDS011;65580;49.446;6.854;2023-12-28T11:50:56;6.88;;;3.22;;
8694;SDS011;65580;49.446;6.854;2023-12-28T11:55:02;4.97;;;2.75;;
8694;SDS011;65580;49.446;6.854;2023-12-28T11:59:06;5.85;;;2.95;;
8694;SDS011;65580;49.446;6.854;2023-12-28T12:03:10;7.70;;;3.58;;
8694;SDS011;65580;49.446;6.854;2023-12-28T12:07:13;7.25;;;3.85;;
8694;SDS011;65580;49.446;6.854;2023-12-28T12:11:17;6.70;;;3.97;;
8694;SDS011;65580;49.446;6.854;2023-12-28T12:15:20;8.50;;;4.10;;
8694;SDS011;65580;49.446;6.854;2023-12-28T12:19:23;4.85;;;2.83;;
8694;SDS011;65580;49.446;6.854;2023-12-28T12:23:27;5.20;;;2.55;;
8694;SDS011;65580;49.446;6.854;2023-12-28T12:27:31;3.72;;;2.55;;
8694;SDS011;65580;49.446;6.854;2023-12-28T12:31:34;8.85;;;2.38;;
8694;SDS011;65580;49.446;6.854;2023-12-28T12:35:39;9.25;;;2.80;;
8694;SDS011;65580;49.446;6.854;2023-12-28T12:39:42;6.15;;;3.05;;
8694;SDS011;65580;49.446;6.854;2023-12-28T12:43:47;7.75;;;3.45;;
8694;SDS011;65580;49.446;6.854;2023-12-28T12:47:50;7.07;;;3.20;;
8694;SDS011;65580;49.446;6.854;2023-12-28T12:51:54;7.93;;;2.92;;
8694;SDS011;65580;49.446;6.854;2023-12-28T12:55:57;9.40;;;2.92;;
8694;SDS011;65580;49.446;6.854;2023-12-28T13:00:02;7.30;;;3.38;;
8694;SDS011;65580;49.446;6.854;2023-12-28T13:04:09;6.68;;;2.92;;
8694;SDS011;65580;49.446;6.854;2023-12-28T13:16:19;6.38;;;3.05;;
8694;SDS011;65580;49.446;6.854;2023-12-28T13:20:22;6.63;;;2.88;;
8694;SDS011;65580;49.446;6.854;2023-12-28T13:24:25;9.23;;;3.72;;
8694;SDS011;65580;49.446;6.854;2023-12-28T13:28:28;7.22;;;3.38;;
8694;SDS011;65580;49.446;6.854;2023-12-28T13:32:32;6.63;;;3.10;;
8694;SDS011;65580;49.446;6.854;2023-12-28T13:36:35;6.07;;;2.80;;
8694;SDS011;65580;49.446;6.854;2023-12-28T13:40:38;7.25;;;3.08;;
8694;SDS011;65580;49.446;6.854;2023-12-28T13:44:41;9.15;;;2.67;;
8694;SDS011;65580;49.446;6.854;2023-12-28T13:52:49;5.57;;;2.47;;
8694;SDS011;65580;49.446;6.854;2023-12-28T13:56:51;6.68;;;2.75;;
8694;SDS011;65580;49.446;6.854;2023-12-28T14:00:58;10.02;;;2.65;;
8694;SDS011;65580;49.446;6.854;2023-12-28T14:05:03;5.30;;;2.53;;
8694;SDS011;65580;49.446;6.854;2023-12-28T14:09:06;6.95;;;2.72;;
8694;SDS011;65580;49.446;6.854;2023-12-28T14:13:09;5.65;;;2.20;;
8694;SDS011;65580;49.446;6.854;2023-12-28T14:17:12;5.80;;;2.30;;
8694;SDS011;65580;49.446;6.854;2023-12-28T14:21:18;6.35;;;2.55;;
8694;SDS011;65580;49.446;6.854;2023-12-28T14:25:22;5.18;;;2.47;;
8694;SDS011;65580;49.446;6.854;2023-12-28T14:29:25;5.22;;;2.42;;
8694;SDS011;65580;49.446;6.854;2023-12-28T14:33:29;5.20;;;2.58;;
8694;SDS011;65580;49.446;6.854;2023-12-28T14:37:34;6.10;;;2.40;;
8694;SDS011;65580;49.446;6.854;2023-12-28T14:41:37;9.50;;;2.60;;
8694;SDS011;65580;49.446;6.854;2023-12-28T14:45:44;4.65;;;2.60;;
8694;SDS011;65580;49.446;6.854;2023-12-28T14:49:48;5.68;;;2.28;;
8694;SDS011;65580;49.446;6.854;2023-12-28T14:53:53;4.90;;;2.40;;
8694;SDS011;65580;49.446;6.854;2023-12-28T14:57:56;6.72;;;2.42;;
8694;SDS011;65580;49.446;6.854;2023-12-28T15:02:01;5.88;;;2.53;;
8694;SDS011;65580;49.446;6.854;2023-12-28T15:06:04;6.45;;;2.67;;
8694;SDS011;65580;49.446;6.854;2023-12-28T15:10:10;6.20;;;2.42;;
8694;SDS011;65580;49.446;6.854;2023-12-28T15:14:14;98.63;;;37.15;;
8694;SDS011;65580;49.446;6.854;2023-12-28T15:22:21;7.60;;;3.60;;
8694;SDS011;65580;49.446;6.854;2023-12-28T15:26:26;8.00;;;4.03;;
8694;SDS011;65580;49.446;6.854;2023-12-28T15:30:29;9.93;;;4.25;;
8694;SDS011;65580;49.446;6.854;2023-12-28T15:34:32;12.57;;;4.97;;
8694;SDS011;65580;49.446;6.854;2023-12-28T15:38:36;13.75;;;5.50;;
8694;SDS011;65580;49.446;6.854;2023-12-28T15:42:40;6.22;;;2.58;;
8694;SDS011;65580;49.446;6.854;2023-12-28T15:46:43;7.70;;;2.95;;
8694;SDS011;65580;49.446;6.854;2023-12-28T15:50:46;7.68;;;2.45;;
8694;SDS011;65580;49.446;6.854;2023-12-28T15:54:49;4.57;;;2.40;;
8694;SDS011;65580;49.446;6.854;2023-12-28T15:58:53;8.18;;;2.38;;
8694;SDS011;65580;49.446;6.854;2023-12-28T16:02:56;10.60;;;4.93;;
8694;SDS011;65580;49.446;6.854;2023-12-28T16:06:59;8.70;;;3.42;;
8694;SDS011;65580;49.446;6.854;2023-12-28T16:11:02;5.45;;;2.60;;
8694;SDS011;65580;49.446;6.854;2023-12-28T16:15:08;5.82;;;3.00;;
8694;SDS011;65580;49.446;6.854;2023-12-28T16:19:12;14.45;;;5.30;;
8694;SDS011;65580;49.446;6.854;2023-12-28T16:23:16;41.97;;;15.52;;
8694;SDS011;65580;49.446;6.854;2023-12-28T16:27:19;30.02;;;9.90;;
8694;SDS011;65580;49.446;6.854;2023-12-28T16:31:24;16.58;;;7.07;;
8694;SDS011;65580;49.446;6.854;2023-12-28T16:35:27;11.90;;;5.72;;
8694;SDS011;65580;49.446;6.854;2023-12-28T16:39:30;9.35;;;3.95;;
8694;SDS011;65580;49.446;6.854;2023-12-28T16:43:33;6.90;;;3.53;;
8694;SDS011;65580;49.446;6.854;2023-12-28T16:47:41;10.75;;;4.47;;
8694;SDS011;65580;49.446;6.854;2023-12-28T16:51:46;39.40;;;18.08;;
8694;SDS011;65580;49.446;6.854;2023-12-28T16:55:50;46.53;;;19.85;;
8694;SDS011;65580;49.446;6.854;2023-12-28T16:59:53;10.77;;;5.07;;
8694;SDS011;65580;49.446;6.854;2023-12-28T17:04:12;11.55;;;5.38;;
8694;SDS011;65580;49.446;6.854;2023-12-28T17:08:15;8.48;;;4.38;;
8694;SDS011;65580;49.446;6.854;2023-12-28T17:12:20;10.35;;;5.63;;
8694;SDS011;65580;49.446;6.854;2023-12-28T17:16:25;8.98;;;4.93;;
8694;SDS011;65580;49.446;6.854;2023-12-28T17:20:30;9.88;;;5.00;;
8694;SDS011;65580;49.446;6.854;2023-12-28T17:24:35;13.15;;;5.82;;
8694;SDS011;65580;49.446;6.854;2023-12-28T17:28:44;10.20;;;5.00;;
8694;SDS011;65580;49.446;6.854;2023-12-28T17:32:50;8.30;;;4.38;;
8694;SDS011;65580;49.446;6.854;2023-12-28T17:36:57;9.23;;;4.25;;
8694;SDS011;65580;49.446;6.854;2023-12-28T17:41:01;6.30;;;3.45;;
8694;SDS011;65580;49.446;6.854;2023-12-28T17:45:04;7.32;;;4.22;;
8694;SDS011;65580;49.446;6.854;2023-12-28T17:49:09;5.82;;;3.35;;
8694;SDS011;65580;49.446;6.854;2023-12-28T17:53:15;4.05;;;2.67;;
8694;SDS011;65580;49.446;6.854;2023-12-28T17:57:18;4.10;;;2.42;;
8694;SDS011;65580;49.446;6.854;2023-12-28T18:01:21;8.35;;;3.90;;
8694;SDS011;65580;49.446;6.854;2023-12-28T18:05:26;4.95;;;3.00;;
8694;SDS011;65580;49.446;6.854;2023-12-28T18:09:31;6.10;;;3.47;;
8694;SDS011;65580;49.446;6.854;2023-12-28T18:13:34;5.50;;;2.90;;
8694;SDS011;65580;49.446;6.854;2023-12-28T18:17:37;5.43;;;2.70;;
8694;SDS011;65580;49.446;6.854;2023-12-28T18:21:39;5.50;;;2.30;;
8694;SDS011;65580;49.446;6.854;2023-12-28T18:29:48;19.77;;;8.50;;
8694;SDS011;65580;49.446;6.854;2023-12-28T18:33:53;24.50;;;11.45;;
8694;SDS011;65580;49.446;6.854;2023-12-28T18:37:56;12.15;;;5.00;;
8694;SDS011;65580;49.446;6.854;2023-12-28T18:42:01;12.55;;;6.43;;
8694;SDS011;65580;49.446;6.854;2023-12-28T18:46:03;18.80;;;9.50;;
8694;SDS011;65580;49.446;6.854;2023-12-28T18:50:07;20.95;;;11.18;;
8694;SDS011;65580;49.446;6.854;2023-12-28T18:54:10;15.40;;;8.60;;
8694;SDS011;65580;49.446;6.854;2023-12-28T18:58:14;13.32;;;8.25;;
8694;SDS011;65580;49.446;6.854;2023-12-28T19:02:17;12.02;;;6.63;;
8694;SDS011;65580;49.446;6.854;2023-12-28T19:06:20;13.20;;;7.60;;
8694;SDS011;65580;49.446;6.854;2023-12-28T19:10:23;9.90;;;6.80;;
8694;SDS011;65580;49.446;6.854;2023-12-28T19:14:27;8.43;;;4.85;;
8694;SDS011;65580;49.446;6.854;2023-12-28T19:18:30;5.88;;;3.42;;
8694;SDS011;65580;49.446;6.854;2023-12-28T19:22:34;5.00;;;3.25;;
8694;SDS011;65580;49.446;6.854;2023-12-28T19:26:37;6.78;;;3.50;;
8694;SDS011;65580;49.446;6.854;2023-12-28T19:30:41;5.93;;;2.90;;
8694;SDS011;65580;49.446;6.854;2023-12-28T19:34:44;3.00;;;2.15;;
8694;SDS011;65580;49.446;6.854;2023-12-28T19:38:47;4.82;;;2.60;;
8694;SDS011;65580;49.446;6.854;2023-12-28T19:42:50;7.63;;;2.85;;
8694;SDS011;65580;49.446;6.854;2023-12-28T19:46:55;3.75;;;2.53;;
8694;SDS011;65580;49.446;6.854;2023-12-28T19:50:57;4.40;;;2.58;;
8694;SDS011;65580;49.446;6.854;2023-12-28T19:55:00;5.38;;;3.20;;
8694;SDS011;65580;49.446;6.854;2023-12-28T19:59:04;4.70;;;2.78;;
8694;SDS011;65580;49.446;6.854;2023-12-28T20:03:08;8.45;;;3.25;;
8694;SDS011;65580;49.446;6.854;2023-12-28T20:07:11;4.53;;;3.08;;
8694;SDS011;65580;49.446;6.854;2023-12-28T20:11:14;6.20;;;3.28;;
8694;SDS011;65580;49.446;6.854;2023-12-28T20:15:16;5.22;;;3.45;;
8694;SDS011;65580;49.446;6.854;2023-12-28T20:19:23;5.95;;;2.92;;
8694;SDS011;65580;49.446;6.854;2023-12-28T20:23:26;6.35;;;3.40;;
8694;SDS011;65580;49.446;6.854;2023-12-28T20:27:29;5.00;;;3.13;;
8694;SDS011;65580;49.446;6.854;2023-12-28T20:31:32;6.40;;;3.70;;
8694;SDS011;65580;49.446;6.854;2023-12-28T20:35:38;10.25;;;4.05;;
8694;SDS011;65580;49.446;6.854;2023-12-28T20:39:41;7.65;;;4.03;;
8694;SDS011;65580;49.446;6.854;2023-12-28T20:43:44;7.97;;;3.55;;
8694;SDS011;65580;49.446;6.854;2023-12-28T20:47:47;5.50;;;3.30;;
8694;SDS011;65580;49.446;6.854;2023-12-28T20:51:51;4.45;;;3.17;;
8694;SDS011;65580;49.446;6.854;2023-12-28T20:55:54;6.75;;;3.55;;
8694;SDS011;65580;49.446;6.854;2023-12-28T20:59:57;8.00;;;3.85;;
8694;SDS011;65580;49.446;6.854;2023-12-28T21:04:00;7.45;;;4.03;;
8694;SDS011;65580;49.446;6.854;2023-12-28T21:12:10;9.18;;;4.25;;
8694;SDS011;65580;49.446;6.854;2023-12-28T21:16:14;7.13;;;3.80;;
8694;SDS011;65580;49.446;6.854;2023-12-28T21:20:17;7.97;;;4.30;;
8694;SDS011;65580;49.446;6.854;2023-12-28T21:24:21;6.00;;;3.65;;
8694;SDS011;65580;49.446;6.854;2023-12-28T21:28:24;10.07;;;4.82;;
8694;SDS011;65580;49.446;6.854;2023-12-28T21:32:27;8.07;;;4.53;;
8694;SDS011;65580;49.446;6.854;2023-12-28T21:36:32;12.57;;;4.43;;
8694;SDS011;65580;49.446;6.854;2023-12-28T21:40:37;7.32;;;4.30;;
8694;SDS011;65580;49.446;6.854;2023-12-28T21:44:41;7.82;;;3.88;;
8694;SDS011;65580;49.446;6.854;2023-12-28T21:48:44;10.80;;;4.82;;
8694;SDS011;65580;49.446;6.854;2023-12-28T21:52:47;7.88;;;4.03;;
8694;SDS011;65580;49.446;6.854;2023-12-28T21:56:52;9.18;;;4.20;;
8694;SDS011;65580;49.446;6.854;2023-12-28T22:00:55;8.30;;;3.58;;
8694;SDS011;65580;49.446;6.854;2023-12-28T22:04:58;7.25;;;3.50;;
8694;SDS011;65580;49.446;6.854;2023-12-28T22:09:02;5.90;;;3.25;;
8694;SDS011;65580;49.446;6.854;2023-12-28T22:13:06;6.38;;;3.15;;
8694;SDS011;65580;49.446;6.854;2023-12-28T22:17:10;8.73;;;3.38;;
8694;SDS011;65580;49.446;6.854;2023-12-28T22:21:12;10.18;;;3.22;;
8694;SDS011;65580;49.446;6.854;2023-12-28T22:25:20;7.25;;;3.53;;
8694;SDS011;65580;49.446;6.854;2023-12-28T22:29:26;6.93;;;3.72;;
8694;SDS011;65580;49.446;6.854;2023-12-28T22:33:29;9.15;;;3.97;;
8694;SDS011;65580;49.446;6.854;2023-12-28T22:37:32;6.60;;;3.45;;
8694;SDS011;65580;49.446;6.854;2023-12-28T22:41:35;6.53;;;3.50;;
8694;SDS011;65580;49.446;6.854;2023-12-28T22:45:39;8.38;;;3.20;;
8694;SDS011;65580;49.446;6.854;2023-12-28T22:49:42;8.43;;;3.42;;
8694;SDS011;65580;49.446;6.854;2023-12-28T22:53:45;6.28;;;2.95;;
8694;SDS011;65580;49.446;6.854;2023-12-28T22:57:48;8.05;;;3.40;;
8694;SDS011;65580;49.446;6.854;2023-12-28T23:01:57;8.07;;;3.60;;
8694;SDS011;65580;49.446;6.854;2023-12-28T23:06:00;7.72;;;3.60;;
8694;SDS011;65580;49.446;6.854;2023-12-28T23:10:03;5.53;;;3.33;;
8694;SDS011;65580;49.446;6.854;2023-12-28T23:14:07;6.90;;;3.30;;
8694;SDS011;65580;49.446;6.854;2023-12-28T23:18:12;7.10;;;3.70;;
8694;SDS011;65580;49.446;6.854;2023-12-28T23:22:17;5.70;;;3.03;;
8694;SDS011;65580;49.446;6.854;2023-12-28T23:26:20;9.23;;;3.30;;
8694;SDS011;65580;49.446;6.854;2023-12-28T23:30:23;7.72;;;3.75;;
8694;SDS011;65580;49.446;6.854;2023-12-28T23:34:28;5.20;;;3.22;;
8694;SDS011;65580;49.446;6.854;2023-12-28T23:38:33;5.95;;;3.03;;
8694;SDS011;65580;49.446;6.854;2023-12-28T23:42:36;4.72;;;2.97;;
8694;SDS011;65580;49.446;6.854;2023-12-28T23:46:39;5.93;;;3.10;;
8694;SDS011;65580;49.446;6.854;2023-12-28T23:50:43;8.18;;;3.28;;
8694;SDS011;65580;49.446;6.854;2023-12-28T23:54:46;5.32;;;2.95;;
8694;SDS011;65580;49.446;6.854;2023-12-28T23:58:49;6.03;;;3.00;;
